sensor_id;sensor_type;location;lat;lon;timestamp;P1;durP1;ratioP1;P2;durP2;ratioP2
43835;SDS011;39345;43.964;25.340;2022-12-24T00:00:03;122.05;;;56.22;;
43835;SDS011;39345;43.964;25.340;2022-12-24T00:02:32;127.15;;;56.78;;
43835;SDS011;39345;43.964;25.340;2022-12-24T00:05:00;128.27;;;56.78;;
43835;SDS011;39345;43.964;25.340;2022-12-24T00:07:28;123.38;;;56.25;;
43835;SDS011;39345;43.964;25.340;2022-12-24T00:09:55;125.57;;;56.67;;
43835;SDS011;39345;43.964;25.340;2022-12-24T00:12:23;126.63;;;58.92;;
43835;SDS011;39345;43.964;25.340;2022-12-24T00:14:50;129.02;;;59.17;;
43835;SDS011;39345;43.964;25.340;2022-12-24T00:17:17;134.93;;;59.85;;
43835;SDS011;39345;43.964;25.340;2022-12-24T00:19:45;128.90;;;59.67;;
43835;SDS011;39345;43.964;25.340;2022-12-24T00:22:13;122.45;;;58.17;;
43835;SDS011;39345;43.964;25.340;2022-12-24T00:24:40;130.52;;;61.17;;
43835;SDS011;39345;43.964;25.340;2022-12-24T00:27:08;135.40;;;60.53;;
43835;SDS011;39345;43.964;25.340;2022-12-24T00:29:35;128.57;;;58.45;;
43835;SDS011;39345;43.964;25.340;2022-12-24T00:32:03;130.55;;;58.63;;
43835;SDS011;39345;43.964;25.340;2022-12-24T00:34:33;122.40;;;56.05;;
43835;SDS011;39345;43.964;25.340;2022-12-24T00:37:00;129.52;;;59.25;;
43835;SDS011;39345;43.964;25.340;2022-12-24T00:39:28;129.52;;;59.92;;
43835;SDS011;39345;43.964;25.340;2022-12-24T00:41:55;134.10;;;61.05;;
43835;SDS011;39345;43.964;25.340;2022-12-24T00:44:23;140.20;;;63.10;;
43835;SDS011;39345;43.964;25.340;2022-12-24T00:46:50;135.75;;;61.42;;
43835;SDS011;39345;43.964;25.340;2022-12-24T00:49:18;130.68;;;63.50;;
43835;SDS011;39345;43.964;25.340;2022-12-24T00:51:45;138.00;;;63.10;;
43835;SDS011;39345;43.964;25.340;2022-12-24T00:54:13;128.50;;;60.95;;
43835;SDS011;39345;43.964;25.340;2022-12-24T00:56:40;127.95;;;61.80;;
43835;SDS011;39345;43.964;25.340;2022-12-24T00:59:08;132.98;;;62.55;;
43835;SDS011;39345;43.964;25.340;2022-12-24T01:01:35;128.55;;;61.53;;
43835;SDS011;39345;43.964;25.340;2022-12-24T01:04:03;132.45;;;60.92;;
43835;SDS011;39345;43.964;25.340;2022-12-24T01:06:49;128.23;;;61.35;;
43835;SDS011;39345;43.964;25.340;2022-12-24T01:09:16;135.02;;;60.70;;
43835;SDS011;39345;43.964;25.340;2022-12-24T01:11:44;130.32;;;59.13;;
43835;SDS011;39345;43.964;25.340;2022-12-24T01:14:11;132.32;;;60.97;;
43835;SDS011;39345;43.964;25.340;2022-12-24T01:16:39;131.43;;;60.58;;
43835;SDS011;39345;43.964;25.340;2022-12-24T01:19:06;127.55;;;60.90;;
43835;SDS011;39345;43.964;25.340;2022-12-24T01:21:34;133.38;;;61.22;;
43835;SDS011;39345;43.964;25.340;2022-12-24T01:24:01;139.35;;;65.07;;
43835;SDS011;39345;43.964;25.340;2022-12-24T01:26:29;136.93;;;66.47;;
43835;SDS011;39345;43.964;25.340;2022-12-24T01:28:56;137.85;;;63.92;;
43835;SDS011;39345;43.964;25.340;2022-12-24T01:31:24;130.57;;;62.85;;
43835;SDS011;39345;43.964;25.340;2022-12-24T01:33:51;132.60;;;61.35;;
43835;SDS011;39345;43.964;25.340;2022-12-24T01:36:19;126.63;;;61.95;;
43835;SDS011;39345;43.964;25.340;2022-12-24T01:38:46;127.38;;;59.10;;
43835;SDS011;39345;43.964;25.340;2022-12-24T01:41:15;130.50;;;60.72;;
43835;SDS011;39345;43.964;25.340;2022-12-24T01:46:48;151.68;;;70.25;;
43835;SDS011;39345;43.964;25.340;2022-12-24T01:49:17;148.00;;;70.00;;
43835;SDS011;39345;43.964;25.340;2022-12-24T01:51:47;148.65;;;70.68;;
43835;SDS011;39345;43.964;25.340;2022-12-24T01:54:17;160.43;;;73.60;;
43835;SDS011;39345;43.964;25.340;2022-12-24T01:56:48;156.80;;;73.47;;
43835;SDS011;39345;43.964;25.340;2022-12-24T01:59:17;157.00;;;75.78;;
43835;SDS011;39345;43.964;25.340;2022-12-24T02:01:45;155.80;;;74.80;;
43835;SDS011;39345;43.964;25.340;2022-12-24T02:04:20;150.40;;;71.35;;
43835;SDS011;39345;43.964;25.340;2022-12-24T02:06:48;159.10;;;75.03;;
43835;SDS011;39345;43.964;25.340;2022-12-24T02:09:15;162.93;;;76.95;;
43835;SDS011;39345;43.964;25.340;2022-12-24T02:11:43;178.05;;;82.68;;
43835;SDS011;39345;43.964;25.340;2022-12-24T02:14:11;204.55;;;87.32;;
43835;SDS011;39345;43.964;25.340;2022-12-24T02:16:42;317.52;;;102.45;;
43835;SDS011;39345;43.964;25.340;2022-12-24T02:30:01;202.88;;;87.60;;
43835;SDS011;39345;43.964;25.340;2022-12-24T02:34:58;209.32;;;84.88;;
43835;SDS011;39345;43.964;25.340;2022-12-24T02:37:39;199.85;;;85.95;;
43835;SDS011;39345;43.964;25.340;2022-12-24T02:40:10;259.73;;;94.47;;
43835;SDS011;39345;43.964;25.340;2022-12-24T02:42:43;249.18;;;95.95;;
43835;SDS011;39345;43.964;25.340;2022-12-24T02:45:28;306.15;;;89.90;;
43835;SDS011;39345;43.964;25.340;2022-12-24T02:47:57;289.50;;;88.20;;
43835;SDS011;39345;43.964;25.340;2022-12-24T02:50:25;275.52;;;93.50;;
43835;SDS011;39345;43.964;25.340;2022-12-24T02:52:53;239.05;;;84.20;;
43835;SDS011;39345;43.964;25.340;2022-12-24T02:55:27;231.13;;;65.13;;
43835;SDS011;39345;43.964;25.340;2022-12-24T03:11:07;214.30;;;65.32;;
43835;SDS011;39345;43.964;25.340;2022-12-24T03:13:35;169.50;;;49.53;;
43835;SDS011;39345;43.964;25.340;2022-12-24T03:16:04;141.68;;;45.83;;
43835;SDS011;39345;43.964;25.340;2022-12-24T03:18:33;226.32;;;64.70;;
43835;SDS011;39345;43.964;25.340;2022-12-24T03:21:25;218.02;;;61.75;;
43835;SDS011;39345;43.964;25.340;2022-12-24T03:23:50;200.60;;;63.47;;
43835;SDS011;39345;43.964;25.340;2022-12-24T03:26:18;196.32;;;59.20;;
43835;SDS011;39345;43.964;25.340;2022-12-24T03:28:46;158.82;;;57.80;;
43835;SDS011;39345;43.964;25.340;2022-12-24T03:31:14;149.82;;;60.05;;
43835;SDS011;39345;43.964;25.340;2022-12-24T03:33:42;133.82;;;47.67;;
43835;SDS011;39345;43.964;25.340;2022-12-24T03:36:10;160.27;;;59.85;;
43835;SDS011;39345;43.964;25.340;2022-12-24T03:38:37;153.10;;;58.10;;
43835;SDS011;39345;43.964;25.340;2022-12-24T03:41:06;174.63;;;59.22;;
43835;SDS011;39345;43.964;25.340;2022-12-24T03:43:34;201.90;;;59.10;;
43835;SDS011;39345;43.964;25.340;2022-12-24T03:46:05;200.40;;;61.85;;
43835;SDS011;39345;43.964;25.340;2022-12-24T03:48:33;205.88;;;58.10;;
43835;SDS011;39345;43.964;25.340;2022-12-24T03:51:01;205.23;;;60.33;;
43835;SDS011;39345;43.964;25.340;2022-12-24T03:53:28;221.57;;;62.08;;
43835;SDS011;39345;43.964;25.340;2022-12-24T03:55:56;210.38;;;63.50;;
43835;SDS011;39345;43.964;25.340;2022-12-24T03:58:23;200.20;;;62.30;;
43835;SDS011;39345;43.964;25.340;2022-12-24T04:00:51;210.52;;;65.63;;
43835;SDS011;39345;43.964;25.340;2022-12-24T04:03:19;219.55;;;65.60;;
43835;SDS011;39345;43.964;25.340;2022-12-24T04:05:47;176.43;;;66.03;;
43835;SDS011;39345;43.964;25.340;2022-12-24T04:08:14;217.55;;;77.80;;
43835;SDS011;39345;43.964;25.340;2022-12-24T04:10:42;218.15;;;81.13;;
43835;SDS011;39345;43.964;25.340;2022-12-24T04:13:09;217.27;;;81.30;;
43835;SDS011;39345;43.964;25.340;2022-12-24T04:15:36;215.68;;;82.43;;
43835;SDS011;39345;43.964;25.340;2022-12-24T04:18:04;252.32;;;83.00;;
43835;SDS011;39345;43.964;25.340;2022-12-24T04:20:31;205.13;;;79.05;;
43835;SDS011;39345;43.964;25.340;2022-12-24T04:22:59;214.13;;;75.90;;
43835;SDS011;39345;43.964;25.340;2022-12-24T04:25:26;200.25;;;73.82;;
43835;SDS011;39345;43.964;25.340;2022-12-24T04:27:54;192.30;;;75.57;;
43835;SDS011;39345;43.964;25.340;2022-12-24T04:30:21;188.65;;;68.90;;
43835;SDS011;39345;43.964;25.340;2022-12-24T04:32:48;226.52;;;64.20;;
43835;SDS011;39345;43.964;25.340;2022-12-24T04:35:16;201.85;;;59.08;;
43835;SDS011;39345;43.964;25.340;2022-12-24T04:37:43;181.25;;;51.38;;
43835;SDS011;39345;43.964;25.340;2022-12-24T04:40:11;159.85;;;49.30;;
43835;SDS011;39345;43.964;25.340;2022-12-24T04:42:38;185.57;;;48.28;;
43835;SDS011;39345;43.964;25.340;2022-12-24T04:45:06;174.38;;;49.05;;
43835;SDS011;39345;43.964;25.340;2022-12-24T04:47:33;153.82;;;45.58;;
43835;SDS011;39345;43.964;25.340;2022-12-24T04:50:01;163.85;;;44.90;;
43835;SDS011;39345;43.964;25.340;2022-12-24T04:52:28;147.35;;;45.47;;
43835;SDS011;39345;43.964;25.340;2022-12-24T04:54:56;192.90;;;45.03;;
43835;SDS011;39345;43.964;25.340;2022-12-24T04:57:23;152.95;;;43.85;;
43835;SDS011;39345;43.964;25.340;2022-12-24T04:59:50;152.80;;;44.28;;
43835;SDS011;39345;43.964;25.340;2022-12-24T05:02:18;142.02;;;43.05;;
43835;SDS011;39345;43.964;25.340;2022-12-24T05:04:45;138.68;;;44.42;;
43835;SDS011;39345;43.964;25.340;2022-12-24T05:07:13;157.23;;;47.95;;
43835;SDS011;39345;43.964;25.340;2022-12-24T05:09:40;138.38;;;45.30;;
43835;SDS011;39345;43.964;25.340;2022-12-24T05:12:08;148.75;;;45.42;;
43835;SDS011;39345;43.964;25.340;2022-12-24T05:14:35;215.13;;;50.03;;
43835;SDS011;39345;43.964;25.340;2022-12-24T05:17:03;131.23;;;43.08;;
43835;SDS011;39345;43.964;25.340;2022-12-24T05:19:31;157.55;;;41.28;;
43835;SDS011;39345;43.964;25.340;2022-12-24T05:21:58;132.00;;;39.03;;
43835;SDS011;39345;43.964;25.340;2022-12-24T05:24:44;126.95;;;36.78;;
43835;SDS011;39345;43.964;25.340;2022-12-24T05:27:30;158.65;;;37.60;;
43835;SDS011;39345;43.964;25.340;2022-12-24T05:29:58;182.55;;;41.63;;
43835;SDS011;39345;43.964;25.340;2022-12-24T05:32:25;150.75;;;38.95;;
43835;SDS011;39345;43.964;25.340;2022-12-24T05:34:54;194.65;;;38.47;;
43835;SDS011;39345;43.964;25.340;2022-12-24T05:37:21;187.10;;;38.60;;
43835;SDS011;39345;43.964;25.340;2022-12-24T05:39:49;193.57;;;38.30;;
43835;SDS011;39345;43.964;25.340;2022-12-24T05:42:16;228.20;;;40.00;;
43835;SDS011;39345;43.964;25.340;2022-12-24T05:44:43;208.48;;;39.42;;
43835;SDS011;39345;43.964;25.340;2022-12-24T05:47:11;185.43;;;40.97;;
43835;SDS011;39345;43.964;25.340;2022-12-24T05:49:38;135.70;;;36.70;;
43835;SDS011;39345;43.964;25.340;2022-12-24T05:52:06;173.75;;;41.45;;
43835;SDS011;39345;43.964;25.340;2022-12-24T05:54:33;160.02;;;39.30;;
43835;SDS011;39345;43.964;25.340;2022-12-24T05:57:01;171.98;;;40.05;;
43835;SDS011;39345;43.964;25.340;2022-12-24T05:59:28;139.30;;;38.40;;
43835;SDS011;39345;43.964;25.340;2022-12-24T06:01:55;155.10;;;36.50;;
43835;SDS011;39345;43.964;25.340;2022-12-24T06:04:23;126.90;;;37.55;;
43835;SDS011;39345;43.964;25.340;2022-12-24T06:06:54;133.25;;;40.20;;
43835;SDS011;39345;43.964;25.340;2022-12-24T06:09:22;160.85;;;41.65;;
43835;SDS011;39345;43.964;25.340;2022-12-24T06:11:49;124.85;;;41.80;;
43835;SDS011;39345;43.964;25.340;2022-12-24T06:14:17;121.22;;;41.20;;
43835;SDS011;39345;43.964;25.340;2022-12-24T06:16:44;112.93;;;40.97;;
43835;SDS011;39345;43.964;25.340;2022-12-24T06:19:12;114.47;;;42.60;;
43835;SDS011;39345;43.964;25.340;2022-12-24T06:21:39;129.70;;;42.97;;
43835;SDS011;39345;43.964;25.340;2022-12-24T06:24:06;98.32;;;43.63;;
43835;SDS011;39345;43.964;25.340;2022-12-24T06:26:34;111.07;;;46.10;;
43835;SDS011;39345;43.964;25.340;2022-12-24T06:29:01;107.10;;;45.47;;
43835;SDS011;39345;43.964;25.340;2022-12-24T06:31:29;101.32;;;45.53;;
43835;SDS011;39345;43.964;25.340;2022-12-24T06:33:56;100.13;;;44.90;;
43835;SDS011;39345;43.964;25.340;2022-12-24T06:36:24;102.30;;;44.95;;
43835;SDS011;39345;43.964;25.340;2022-12-24T06:38:53;111.63;;;48.85;;
43835;SDS011;39345;43.964;25.340;2022-12-24T06:41:21;123.95;;;47.75;;
43835;SDS011;39345;43.964;25.340;2022-12-24T06:43:49;119.22;;;53.53;;
43835;SDS011;39345;43.964;25.340;2022-12-24T06:46:17;130.38;;;53.92;;
43835;SDS011;39345;43.964;25.340;2022-12-24T06:48:45;134.65;;;55.80;;
43835;SDS011;39345;43.964;25.340;2022-12-24T06:51:13;137.55;;;58.13;;
43835;SDS011;39345;43.964;25.340;2022-12-24T06:53:41;144.35;;;57.92;;
43835;SDS011;39345;43.964;25.340;2022-12-24T06:56:10;127.45;;;54.60;;
43835;SDS011;39345;43.964;25.340;2022-12-24T06:58:37;131.90;;;61.47;;
43835;SDS011;39345;43.964;25.340;2022-12-24T07:01:06;144.48;;;63.05;;
43835;SDS011;39345;43.964;25.340;2022-12-24T07:03:34;127.03;;;58.53;;
43835;SDS011;39345;43.964;25.340;2022-12-24T07:06:02;125.90;;;53.08;;
43835;SDS011;39345;43.964;25.340;2022-12-24T07:08:29;143.32;;;50.22;;
43835;SDS011;39345;43.964;25.340;2022-12-24T07:11:02;105.18;;;47.60;;
43835;SDS011;39345;43.964;25.340;2022-12-24T07:13:29;103.70;;;47.58;;
43835;SDS011;39345;43.964;25.340;2022-12-24T07:15:59;101.15;;;47.60;;
43835;SDS011;39345;43.964;25.340;2022-12-24T07:18:27;107.57;;;47.83;;
43835;SDS011;39345;43.964;25.340;2022-12-24T07:20:54;96.68;;;48.80;;
43835;SDS011;39345;43.964;25.340;2022-12-24T07:23:22;108.10;;;49.00;;
43835;SDS011;39345;43.964;25.340;2022-12-24T07:25:49;98.88;;;47.75;;
43835;SDS011;39345;43.964;25.340;2022-12-24T07:28:17;101.22;;;50.25;;
43835;SDS011;39345;43.964;25.340;2022-12-24T07:30:53;98.88;;;48.83;;
43835;SDS011;39345;43.964;25.340;2022-12-24T07:33:20;97.30;;;48.58;;
43835;SDS011;39345;43.964;25.340;2022-12-24T07:35:48;97.78;;;48.67;;
43835;SDS011;39345;43.964;25.340;2022-12-24T07:38:21;94.03;;;47.72;;
43835;SDS011;39345;43.964;25.340;2022-12-24T07:40:48;100.47;;;48.92;;
43835;SDS011;39345;43.964;25.340;2022-12-24T07:43:16;100.95;;;49.67;;
43835;SDS011;39345;43.964;25.340;2022-12-24T07:45:43;97.28;;;48.10;;
43835;SDS011;39345;43.964;25.340;2022-12-24T07:48:11;94.18;;;46.25;;
43835;SDS011;39345;43.964;25.340;2022-12-24T07:50:38;93.65;;;47.08;;
43835;SDS011;39345;43.964;25.340;2022-12-24T07:53:05;95.00;;;47.65;;
43835;SDS011;39345;43.964;25.340;2022-12-24T07:55:34;98.00;;;48.22;;
43835;SDS011;39345;43.964;25.340;2022-12-24T07:58:02;96.50;;;46.63;;
43835;SDS011;39345;43.964;25.340;2022-12-24T08:00:29;111.50;;;56.22;;
43835;SDS011;39345;43.964;25.340;2022-12-24T08:02:56;100.82;;;49.42;;
43835;SDS011;39345;43.964;25.340;2022-12-24T08:05:26;108.07;;;51.75;;
43835;SDS011;39345;43.964;25.340;2022-12-24T08:07:53;102.30;;;51.28;;
43835;SDS011;39345;43.964;25.340;2022-12-24T08:10:21;108.68;;;51.58;;
43835;SDS011;39345;43.964;25.340;2022-12-24T08:12:49;104.93;;;53.63;;
43835;SDS011;39345;43.964;25.340;2022-12-24T08:15:16;106.07;;;51.67;;
43835;SDS011;39345;43.964;25.340;2022-12-24T08:17:44;103.43;;;52.28;;
43835;SDS011;39345;43.964;25.340;2022-12-24T08:20:11;98.18;;;50.17;;
43835;SDS011;39345;43.964;25.340;2022-12-24T08:22:39;98.95;;;52.20;;
43835;SDS011;39345;43.964;25.340;2022-12-24T08:25:06;97.65;;;49.35;;
43835;SDS011;39345;43.964;25.340;2022-12-24T08:27:34;99.53;;;51.47;;
43835;SDS011;39345;43.964;25.340;2022-12-24T08:30:02;95.60;;;50.85;;
43835;SDS011;39345;43.964;25.340;2022-12-24T08:32:30;92.15;;;49.97;;
43835;SDS011;39345;43.964;25.340;2022-12-24T08:34:57;91.13;;;51.55;;
43835;SDS011;39345;43.964;25.340;2022-12-24T08:37:25;92.90;;;50.33;;
43835;SDS011;39345;43.964;25.340;2022-12-24T08:39:52;95.97;;;50.03;;
43835;SDS011;39345;43.964;25.340;2022-12-24T08:42:20;95.55;;;50.35;;
43835;SDS011;39345;43.964;25.340;2022-12-24T08:44:47;94.90;;;48.78;;
43835;SDS011;39345;43.964;25.340;2022-12-24T08:47:15;100.45;;;48.85;;
43835;SDS011;39345;43.964;25.340;2022-12-24T08:49:42;100.78;;;51.92;;
43835;SDS011;39345;43.964;25.340;2022-12-24T08:52:10;94.20;;;50.65;;
43835;SDS011;39345;43.964;25.340;2022-12-24T08:54:37;97.00;;;51.45;;
43835;SDS011;39345;43.964;25.340;2022-12-24T08:57:05;104.65;;;54.45;;
43835;SDS011;39345;43.964;25.340;2022-12-24T08:59:33;106.30;;;55.15;;
43835;SDS011;39345;43.964;25.340;2022-12-24T09:02:00;100.25;;;57.22;;
43835;SDS011;39345;43.964;25.340;2022-12-24T09:04:28;99.55;;;55.90;;
43835;SDS011;39345;43.964;25.340;2022-12-24T09:06:55;104.50;;;57.55;;
43835;SDS011;39345;43.964;25.340;2022-12-24T09:09:23;107.95;;;58.60;;
43835;SDS011;39345;43.964;25.340;2022-12-24T09:11:50;100.68;;;58.58;;
43835;SDS011;39345;43.964;25.340;2022-12-24T09:14:19;103.05;;;57.55;;
43835;SDS011;39345;43.964;25.340;2022-12-24T09:16:46;102.13;;;59.63;;
43835;SDS011;39345;43.964;25.340;2022-12-24T09:19:14;113.10;;;61.05;;
43835;SDS011;39345;43.964;25.340;2022-12-24T09:21:41;108.85;;;61.25;;
43835;SDS011;39345;43.964;25.340;2022-12-24T09:24:09;106.22;;;63.45;;
43835;SDS011;39345;43.964;25.340;2022-12-24T09:26:36;102.97;;;59.33;;
43835;SDS011;39345;43.964;25.340;2022-12-24T09:29:04;97.55;;;57.70;;
43835;SDS011;39345;43.964;25.340;2022-12-24T09:31:31;98.88;;;57.50;;
43835;SDS011;39345;43.964;25.340;2022-12-24T09:33:59;99.95;;;59.28;;
43835;SDS011;39345;43.964;25.340;2022-12-24T09:36:26;100.10;;;56.60;;
43835;SDS011;39345;43.964;25.340;2022-12-24T09:38:54;96.47;;;58.65;;
43835;SDS011;39345;43.964;25.340;2022-12-24T09:43:52;97.63;;;58.25;;
43835;SDS011;39345;43.964;25.340;2022-12-24T09:46:27;104.32;;;61.45;;
43835;SDS011;39345;43.964;25.340;2022-12-24T09:48:57;104.93;;;60.33;;
43835;SDS011;39345;43.964;25.340;2022-12-24T09:51:32;101.72;;;58.97;;
43835;SDS011;39345;43.964;25.340;2022-12-24T09:54:05;95.97;;;55.35;;
43835;SDS011;39345;43.964;25.340;2022-12-24T09:56:42;90.28;;;53.28;;
43835;SDS011;39345;43.964;25.340;2022-12-24T09:59:12;99.80;;;55.05;;
43835;SDS011;39345;43.964;25.340;2022-12-24T10:01:40;101.32;;;54.97;;
43835;SDS011;39345;43.964;25.340;2022-12-24T10:04:13;97.40;;;54.65;;
43835;SDS011;39345;43.964;25.340;2022-12-24T10:06:57;90.47;;;54.53;;
43835;SDS011;39345;43.964;25.340;2022-12-24T10:22:36;95.22;;;56.95;;
43835;SDS011;39345;43.964;25.340;2022-12-24T10:27:38;90.40;;;54.72;;
43835;SDS011;39345;43.964;25.340;2022-12-24T10:30:16;90.38;;;54.85;;
43835;SDS011;39345;43.964;25.340;2022-12-24T10:32:46;91.35;;;53.47;;
43835;SDS011;39345;43.964;25.340;2022-12-24T10:37:43;92.53;;;53.80;;
43835;SDS011;39345;43.964;25.340;2022-12-24T10:42:54;86.85;;;53.47;;
43835;SDS011;39345;43.964;25.340;2022-12-24T10:45:23;90.20;;;53.67;;
43835;SDS011;39345;43.964;25.340;2022-12-24T10:47:53;85.85;;;51.53;;
43835;SDS011;39345;43.964;25.340;2022-12-24T10:50:31;83.07;;;51.53;;
43835;SDS011;39345;43.964;25.340;2022-12-24T10:53:12;87.80;;;52.50;;
43835;SDS011;39345;43.964;25.340;2022-12-24T10:55:41;90.05;;;53.90;;
43835;SDS011;39345;43.964;25.340;2022-12-24T10:58:12;94.43;;;58.70;;
43835;SDS011;39345;43.964;25.340;2022-12-24T11:00:41;86.85;;;52.90;;
43835;SDS011;39345;43.964;25.340;2022-12-24T11:03:31;78.03;;;48.83;;
43835;SDS011;39345;43.964;25.340;2022-12-24T11:08:27;77.55;;;48.28;;
43835;SDS011;39345;43.964;25.340;2022-12-24T11:11:02;78.30;;;49.25;;
43835;SDS011;39345;43.964;25.340;2022-12-24T11:13:52;80.95;;;50.95;;
43835;SDS011;39345;43.964;25.340;2022-12-24T11:16:34;74.70;;;48.28;;
43835;SDS011;39345;43.964;25.340;2022-12-24T11:19:03;81.93;;;50.15;;
43835;SDS011;39345;43.964;25.340;2022-12-24T11:21:32;85.07;;;51.78;;
43835;SDS011;39345;43.964;25.340;2022-12-24T11:24:23;88.78;;;52.53;;
43835;SDS011;39345;43.964;25.340;2022-12-24T11:26:51;85.90;;;53.60;;
43835;SDS011;39345;43.964;25.340;2022-12-24T11:29:22;91.40;;;57.20;;
43835;SDS011;39345;43.964;25.340;2022-12-24T11:31:50;89.82;;;53.67;;
43835;SDS011;39345;43.964;25.340;2022-12-24T11:34:26;84.72;;;52.72;;
43835;SDS011;39345;43.964;25.340;2022-12-24T11:39:24;95.90;;;55.38;;
43835;SDS011;39345;43.964;25.340;2022-12-24T11:41:52;88.28;;;53.05;;
43835;SDS011;39345;43.964;25.340;2022-12-24T11:44:25;86.07;;;52.40;;
43835;SDS011;39345;43.964;25.340;2022-12-24T11:46:53;108.35;;;61.50;;
43835;SDS011;39345;43.964;25.340;2022-12-24T11:49:29;92.07;;;55.88;;
43835;SDS011;39345;43.964;25.340;2022-12-24T11:51:59;97.30;;;61.60;;
43835;SDS011;39345;43.964;25.340;2022-12-24T11:54:30;93.45;;;55.80;;
43835;SDS011;39345;43.964;25.340;2022-12-24T11:57:00;96.30;;;58.53;;
43835;SDS011;39345;43.964;25.340;2022-12-24T11:59:31;88.18;;;53.95;;
43835;SDS011;39345;43.964;25.340;2022-12-24T12:04:50;88.53;;;54.17;;
43835;SDS011;39345;43.964;25.340;2022-12-24T12:07:19;90.50;;;56.75;;
43835;SDS011;39345;43.964;25.340;2022-12-24T12:09:54;89.18;;;56.30;;
43835;SDS011;39345;43.964;25.340;2022-12-24T12:12:23;94.50;;;58.33;;
43835;SDS011;39345;43.964;25.340;2022-12-24T12:17:39;79.90;;;51.55;;
43835;SDS011;39345;43.964;25.340;2022-12-24T12:20:15;76.75;;;48.42;;
43835;SDS011;39345;43.964;25.340;2022-12-24T12:25:40;71.18;;;45.90;;
43835;SDS011;39345;43.964;25.340;2022-12-24T12:28:17;71.10;;;45.22;;
43835;SDS011;39345;43.964;25.340;2022-12-24T12:30:49;72.82;;;45.95;;
43835;SDS011;39345;43.964;25.340;2022-12-24T12:33:25;67.07;;;42.90;;
43835;SDS011;39345;43.964;25.340;2022-12-24T12:35:54;78.72;;;49.28;;
43835;SDS011;39345;43.964;25.340;2022-12-24T12:38:24;75.50;;;48.05;;
43835;SDS011;39345;43.964;25.340;2022-12-24T12:43:37;91.45;;;55.47;;
43835;SDS011;39345;43.964;25.340;2022-12-24T12:46:28;86.65;;;52.38;;
43835;SDS011;39345;43.964;25.340;2022-12-24T12:51:35;91.25;;;54.10;;
43835;SDS011;39345;43.964;25.340;2022-12-24T12:54:11;85.28;;;51.70;;
43835;SDS011;39345;43.964;25.340;2022-12-24T12:56:43;77.85;;;45.30;;
43835;SDS011;39345;43.964;25.340;2022-12-24T12:59:23;95.57;;;57.70;;
43835;SDS011;39345;43.964;25.340;2022-12-24T13:20:23;154.55;;;88.90;;
43835;SDS011;39345;43.964;25.340;2022-12-24T13:25:41;99.88;;;55.60;;
43835;SDS011;39345;43.964;25.340;2022-12-24T13:36:06;60.47;;;38.60;;
43835;SDS011;39345;43.964;25.340;2022-12-24T13:38:45;65.00;;;40.75;;
43835;SDS011;39345;43.964;25.340;2022-12-24T13:54:32;51.17;;;32.08;;
43835;SDS011;39345;43.964;25.340;2022-12-24T13:57:00;85.95;;;45.78;;
43835;SDS011;39345;43.964;25.340;2022-12-24T13:59:35;91.72;;;51.00;;
43835;SDS011;39345;43.964;25.340;2022-12-24T14:02:04;53.92;;;32.25;;
43835;SDS011;39345;43.964;25.340;2022-12-24T14:04:38;206.32;;;113.55;;
43835;SDS011;39345;43.964;25.340;2022-12-24T14:07:07;115.75;;;65.18;;
43835;SDS011;39345;43.964;25.340;2022-12-24T14:09:36;158.20;;;93.75;;
43835;SDS011;39345;43.964;25.340;2022-12-24T14:14:32;59.10;;;37.90;;
43835;SDS011;39345;43.964;25.340;2022-12-24T14:17:00;37.05;;;25.33;;
43835;SDS011;39345;43.964;25.340;2022-12-24T14:19:37;33.50;;;23.67;;
43835;SDS011;39345;43.964;25.340;2022-12-24T14:24:52;27.02;;;18.58;;
43835;SDS011;39345;43.964;25.340;2022-12-24T14:28:06;25.83;;;19.70;;
43835;SDS011;39345;43.964;25.340;2022-12-24T14:30:15;28.98;;;18.50;;
43835;SDS011;39345;43.964;25.340;2022-12-24T14:32:44;32.42;;;20.80;;
43835;SDS011;39345;43.964;25.340;2022-12-24T14:37:40;33.42;;;22.02;;
43835;SDS011;39345;43.964;25.340;2022-12-24T14:40:12;26.80;;;17.83;;
43835;SDS011;39345;43.964;25.340;2022-12-24T14:45:36;23.45;;;16.23;;
43835;SDS011;39345;43.964;25.340;2022-12-24T14:48:16;24.15;;;15.95;;
43835;SDS011;39345;43.964;25.340;2022-12-24T14:53:25;25.35;;;16.45;;
43835;SDS011;39345;43.964;25.340;2022-12-24T14:55:54;25.05;;;16.05;;
43835;SDS011;39345;43.964;25.340;2022-12-24T14:58:26;31.10;;;19.23;;
43835;SDS011;39345;43.964;25.340;2022-12-24T15:00:55;36.92;;;22.90;;
43835;SDS011;39345;43.964;25.340;2022-12-24T15:03:24;42.63;;;27.20;;
43835;SDS011;39345;43.964;25.340;2022-12-24T15:05:53;35.72;;;20.63;;
43835;SDS011;39345;43.964;25.340;2022-12-24T15:08:44;31.92;;;19.70;;
43835;SDS011;39345;43.964;25.340;2022-12-24T15:11:16;26.85;;;17.10;;
43835;SDS011;39345;43.964;25.340;2022-12-24T15:13:49;24.75;;;15.57;;
43835;SDS011;39345;43.964;25.340;2022-12-24T15:16:26;21.40;;;14.38;;
43835;SDS011;39345;43.964;25.340;2022-12-24T15:18:55;20.55;;;13.55;;
43835;SDS011;39345;43.964;25.340;2022-12-24T15:21:30;22.65;;;14.77;;
43835;SDS011;39345;43.964;25.340;2022-12-24T15:26:29;20.48;;;13.25;;
43835;SDS011;39345;43.964;25.340;2022-12-24T15:28:58;22.52;;;13.70;;
43835;SDS011;39345;43.964;25.340;2022-12-24T15:31:29;20.40;;;13.95;;
43835;SDS011;39345;43.964;25.340;2022-12-24T15:33:57;20.08;;;12.70;;
43835;SDS011;39345;43.964;25.340;2022-12-24T15:38:57;20.90;;;14.07;;
43835;SDS011;39345;43.964;25.340;2022-12-24T15:41:27;20.08;;;14.13;;
43835;SDS011;39345;43.964;25.340;2022-12-24T15:43:58;24.17;;;14.32;;
43835;SDS011;39345;43.964;25.340;2022-12-24T15:46:27;20.83;;;14.60;;
43835;SDS011;39345;43.964;25.340;2022-12-24T15:48:56;21.05;;;14.60;;
43835;SDS011;39345;43.964;25.340;2022-12-24T15:51:25;22.67;;;14.90;;
43835;SDS011;39345;43.964;25.340;2022-12-24T15:54:00;21.92;;;15.40;;
43835;SDS011;39345;43.964;25.340;2022-12-24T15:56:42;24.30;;;15.90;;
43835;SDS011;39345;43.964;25.340;2022-12-24T16:01:43;26.02;;;17.17;;
43835;SDS011;39345;43.964;25.340;2022-12-24T16:04:13;24.40;;;16.55;;
43835;SDS011;39345;43.964;25.340;2022-12-24T16:06:57;25.80;;;16.80;;
43835;SDS011;39345;43.964;25.340;2022-12-24T16:09:41;28.45;;;18.52;;
43835;SDS011;39345;43.964;25.340;2022-12-24T16:12:13;29.90;;;18.73;;
43835;SDS011;39345;43.964;25.340;2022-12-24T16:14:46;29.67;;;19.38;;
43835;SDS011;39345;43.964;25.340;2022-12-24T16:17:20;29.65;;;19.40;;
43835;SDS011;39345;43.964;25.340;2022-12-24T16:19:52;28.27;;;19.48;;
43835;SDS011;39345;43.964;25.340;2022-12-24T16:22:21;28.45;;;19.38;;
43835;SDS011;39345;43.964;25.340;2022-12-24T16:24:58;28.50;;;18.55;;
43835;SDS011;39345;43.964;25.340;2022-12-24T16:27:26;28.25;;;18.75;;
43835;SDS011;39345;43.964;25.340;2022-12-24T16:29:53;28.25;;;19.02;;